Time;durP1;ratioP1;P1;durP2;ratioP2;P2;SDS_P1;SDS_P2;PMS_P1;PMS_P2;Temp;Humidity;BMP_temperature;BMP_pressure;BME280_temperature;BME280_humidity;BME280_pressure;Samples;Min_cycle;Max_cycle;Signal;HPM_P1;HPM_P2
2023/08/31 00:01:39;;;;;;;6.88;3.72;;;;;;;12.39;100.00;100785.38;10453987;28;20032;-67
2023/08/31 00:06:40;;;;;;;2.50;2.10;;;;;;;12.21;100.00;100784.16;10455770;28;20033;-67
2023/08/31 00:11:41;;;;;;;2.92;1.60;;;;;;;12.10;100.00;100798.38;10454299;28;20041;-67
2023/08/31 00:16:41;;;;;;;9.10;1.55;;;;;;;11.96;100.00;100796.69;10455295;28;20174;-66
2023/08/31 00:21:42;;;;;;;3.80;1.42;;;;;;;11.89;100.00;100795.88;10455048;28;20565;-67
2023/08/31 00:26:43;;;;;;;2.05;1.83;;;;;;;11.89;100.00;100785.00;10455550;28;20112;-65
2023/08/31 00:31:44;;;;;;;1.88;1.77;;;;;;;11.82;100.00;100782.28;10458198;28;20072;-65
2023/08/31 00:36:44;;;;;;;3.17;1.73;;;;;;;11.66;100.00;100785.41;10458614;28;20083;-67
2023/08/31 00:41:45;;;;;;;1.27;1.17;;;;;;;11.47;100.00;100787.03;10454281;28;20456;-66
2023/08/31 00:46:45;;;;;;;7.93;1.65;;;;;;;11.36;100.00;100780.34;10454290;28;20079;-66
2023/08/31 00:51:48;;;;;;;5.60;2.08;;;;;;;11.21;100.00;100777.81;10454625;28;20037;-66
2023/08/31 00:56:56;;;;;;;1.42;1.23;;;;;;;11.21;100.00;100775.09;10436604;28;20041;-67
2023/08/31 01:02:04;;;;;;;11.63;2.28;;;;;;;11.12;100.00;100765.50;10459304;28;20033;-67
2023/08/31 01:07:05;;;;;;;1.92;1.77;;;;;;;11.07;100.00;100770.66;10460345;28;20033;-67
2023/08/31 01:12:44;;;;;;;2.67;1.47;;;;;;;11.02;100.00;100774.00;10462705;28;20368;-67
2023/08/31 01:17:47;;;;;;;11.23;2.28;;;;;;;11.18;100.00;100772.81;10420070;28;20380;-66
2023/08/31 01:22:57;;;;;;;3.75;2.15;;;;;;;11.36;100.00;100778.47;10444508;28;20025;-66
2023/08/31 01:28:01;;;;;;;1.48;1.38;;;;;;;11.50;100.00;100770.38;10459989;28;20056;-66
2023/08/31 01:33:02;;;;;;;2.90;1.63;;;;;;;11.59;100.00;100790.81;10443752;28;20056;-66
2023/08/31 01:38:02;;;;;;;1.40;1.40;;;;;;;11.61;100.00;100781.44;10461247;28;20120;-67
2023/08/31 01:43:04;;;;;;;2.22;2.03;;;;;;;11.64;100.00;100778.28;10442894;28;20376;-66
2023/08/31 01:48:05;;;;;;;2.53;1.77;;;;;;;11.69;100.00;100784.97;10458457;28;20178;-66
2023/08/31 01:53:06;;;;;;;4.82;2.30;;;;;;;11.77;100.00;100782.91;10459944;28;20441;-67
2023/08/31 01:58:07;;;;;;;5.03;2.13;;;;;;;11.82;100.00;100793.13;10459003;28;20052;-66
2023/08/31 02:03:08;;;;;;;3.60;1.83;;;;;;;11.64;100.00;100782.88;10460030;28;20041;-66
2023/08/31 02:08:08;;;;;;;2.72;2.25;;;;;;;11.63;100.00;100792.06;10458573;28;20449;-66
2023/08/31 02:13:09;;;;;;;7.20;2.90;;;;;;;11.67;100.00;100785.19;10459031;28;20037;-66
2023/08/31 02:18:09;;;;;;;5.00;3.28;;;;;;;11.51;100.00;100791.84;10458974;28;20037;-67
2023/08/31 02:23:11;;;;;;;3.78;3.42;;;;;;;11.39;100.00;100785.34;10458849;28;20037;-67
2023/08/31 02:28:12;;;;;;;7.00;3.17;;;;;;;11.35;100.00;100784.09;10460273;28;20118;-67
2023/08/31 02:33:12;;;;;;;2.90;2.67;;;;;;;11.32;100.00;100788.03;10459895;28;20041;-66
2023/08/31 02:38:13;;;;;;;3.00;2.80;;;;;;;11.23;100.00;100786.59;10458116;28;20105;-66
2023/08/31 02:43:13;;;;;;;3.25;2.75;;;;;;;11.24;100.00;100787.41;10458578;28;20048;-66
2023/08/31 02:48:14;;;;;;;4.88;2.38;;;;;;;11.16;100.00;100777.56;10458124;28;20472;-66
2023/08/31 02:53:14;;;;;;;3.00;2.78;;;;;;;11.13;100.00;100791.53;10458232;28;20041;-66
2023/08/31 02:58:15;;;;;;;4.97;3.53;;;;;;;11.24;100.00;100788.25;10457940;28;20061;-67
2023/08/31 03:03:16;;;;;;;6.55;3.00;;;;;;;11.38;100.00;100789.94;10459062;28;20116;-65
2023/08/31 03:08:16;;;;;;;1.92;1.83;;;;;;;11.40;100.00;100798.72;10459542;28;20037;-65
2023/08/31 03:13:17;;;;;;;1.92;1.77;;;;;;;11.43;100.00;100781.19;10458751;28;20036;-66
2023/08/31 03:18:17;;;;;;;3.65;2.30;;;;;;;11.52;100.00;100773.69;10457583;28;20036;-65
2023/08/31 03:23:17;;;;;;;2.40;2.00;;;;;;;11.57;100.00;100776.63;10454848;28;20045;-65
2023/08/31 03:28:18;;;;;;;1.38;1.27;;;;;;;11.59;100.00;100779.97;10456430;28;20053;-66
2023/08/31 03:33:19;;;;;;;4.88;2.42;;;;;;;11.57;100.00;100774.75;10457021;28;20041;-67
2023/08/31 03:38:19;;;;;;;8.02;2.72;;;;;;;11.64;100.00;100778.28;10456561;28;20025;-66
2023/08/31 03:43:20;;;;;;;4.10;1.95;;;;;;;11.73;100.00;100791.66;10456722;28;20033;-65
2023/08/31 03:48:20;;;;;;;15.00;2.80;;;;;;;11.75;100.00;100789.59;10456182;28;20037;-67
2023/08/31 03:53:20;;;;;;;4.60;2.75;;;;;;;12.00;100.00;100795.25;10438641;28;20599;-68
2023/08/31 03:58:21;;;;;;;7.00;2.65;;;;;;;12.15;100.00;100792.31;10454318;28;20039;-66
2023/08/31 04:03:22;;;;;;;1.60;1.50;;;;;;;12.29;100.00;100797.50;10455008;28;20116;-66
2023/08/31 04:08:22;;;;;;;7.25;2.50;;;;;;;12.38;100.00;100790.00;10453376;28;20037;-66
2023/08/31 04:13:23;;;;;;;2.67;2.42;;;;;;;12.46;100.00;100805.22;10453508;28;20029;-66
2023/08/31 04:18:23;;;;;;;2.03;1.92;;;;;;;12.68;100.00;100803.91;10454773;28;20061;-66
2023/08/31 04:23:23;;;;;;;5.13;1.88;;;;;;;12.77;100.00;100809.94;10455189;28;20087;-65
2023/08/31 04:28:24;;;;;;;4.53;2.17;;;;;;;12.68;100.00;100817.47;10453692;28;20041;-65
2023/08/31 04:33:24;;;;;;;3.28;1.95;;;;;;;12.64;100.00;100802.66;10453823;28;20094;-66
2023/08/31 04:38:25;;;;;;;2.20;1.88;;;;;;;12.67;100.00;100810.38;10453985;28;20044;-65
2023/08/31 04:43:25;;;;;;;2.15;1.65;;;;;;;12.72;100.00;100813.28;10453635;28;20065;-65
2023/08/31 04:48:27;;;;;;;5.57;2.28;;;;;;;12.69;100.00;100819.13;10437100;28;20106;-65
2023/08/31 04:53:27;;;;;;;2.50;2.15;;;;;;;12.66;100.00;100835.88;10453269;28;20061;-65
2023/08/31 04:58:27;;;;;;;4.65;2.17;;;;;;;12.62;100.00;100829.19;10394648;28;20056;-67
2023/08/31 05:03:28;;;;;;;3.08;1.27;;;;;;;12.64;100.00;100829.84;10453269;28;20102;-66
2023/08/31 05:08:28;;;;;;;3.25;1.50;;;;;;;12.68;100.00;100841.09;10453551;28;20029;-66
2023/08/31 05:13:29;;;;;;;5.28;2.13;;;;;;;12.70;100.00;100853.44;10451975;28;20120;-66
2023/08/31 05:18:29;;;;;;;12.15;1.95;;;;;;;12.70;100.00;100856.16;10452306;28;20036;-66
2023/08/31 05:23:30;;;;;;;4.45;1.83;;;;;;;12.70;100.00;100858.00;10452077;28;20143;-66
2023/08/31 05:28:30;;;;;;;3.30;1.90;;;;;;;12.69;100.00;100873.47;10451389;28;20045;-66
2023/08/31 05:33:33;;;;;;;4.80;2.35;;;;;;;12.72;100.00;100867.63;10455952;28;20601;-66
2023/08/31 05:38:34;;;;;;;2.45;1.48;;;;;;;12.74;100.00;100870.97;10452710;28;20041;-67
2023/08/31 05:43:35;;;;;;;4.57;2.47;;;;;;;12.77;100.00;100875.16;10452950;28;20045;-66
2023/08/31 05:48:38;;;;;;;1.60;1.15;;;;;;;12.87;100.00;100885.56;10459039;28;20039;-67
2023/08/31 05:53:39;;;;;;;3.53;1.75;;;;;;;13.01;100.00;100879.03;10459279;28;20156;-68
2023/08/31 05:58:39;;;;;;;1.00;1.00;;;;;;;14.15;100.00;100888.28;10459184;28;20127;-66
2023/08/31 06:03:40;;;;;;;1.85;1.75;;;;;;;15.28;100.00;100892.63;10459580;28;20510;-67
2023/08/31 06:08:42;;;;;;;1.92;1.25;;;;;;;16.09;100.00;100890.50;10459287;28;20095;-67
2023/08/31 06:13:43;;;;;;;3.38;1.42;;;;;;;16.80;100.00;100889.50;10457910;28;20029;-67
2023/08/31 06:18:44;;;;;;;5.95;1.63;;;;;;;17.46;100.00;100895.56;10456789;28;20113;-68
2023/08/31 06:23:44;;;;;;;2.45;1.52;;;;;;;17.91;100.00;100899.47;10458834;28;20056;-66
2023/08/31 06:28:44;;;;;;;2.97;1.48;;;;;;;18.44;100.00;100906.38;10457216;28;20056;-67
2023/08/31 06:33:45;;;;;;;2.70;1.77;;;;;;;18.94;100.00;100897.28;10458861;28;20468;-67
2023/08/31 06:38:45;;;;;;;2.00;1.90;;;;;;;19.22;100.00;100894.38;10458276;28;20080;-68
2023/08/31 06:43:46;;;;;;;1.40;1.30;;;;;;;19.48;100.00;100901.00;10440126;28;20036;-67
2023/08/31 06:48:46;;;;;;;1.23;1.15;;;;;;;20.03;100.00;100901.88;10455373;28;20036;-67
2023/08/31 06:53:47;;;;;;;1.92;1.25;;;;;;;20.69;100.00;100912.63;10439577;28;20071;-68
2023/08/31 06:58:47;;;;;;;3.78;1.90;;;;;;;21.05;100.00;100913.69;10457768;28;20389;-67
2023/08/31 07:03:47;;;;;;;2.08;1.70;;;;;;;21.18;100.00;100920.63;10456840;28;20036;-68
2023/08/31 07:08:49;;;;;;;1.35;1.20;;;;;;;21.35;100.00;100926.81;10456394;28;20040;-67
2023/08/31 07:13:49;;;;;;;2.20;1.73;;;;;;;21.79;100.00;100920.06;10457794;28;20029;-68
2023/08/31 07:18:50;;;;;;;2.42;1.50;;;;;;;22.09;100.00;100929.50;10455854;28;20033;-67
2023/08/31 07:23:50;;;;;;;1.65;1.55;;;;;;;21.92;100.00;100933.34;10456429;28;20163;-69
2023/08/31 07:28:50;;;;;;;1.05;0.98;;;;;;;22.18;100.00;100927.91;10454746;28;20053;-68
2023/08/31 07:33:51;;;;;;;3.45;2.13;;;;;;;22.54;100.00;100933.41;10457092;28;20041;-68
2023/08/31 07:38:51;;;;;;;1.08;1.08;;;;;;;22.77;100.00;100934.78;10456347;28;20052;-68
2023/08/31 07:43:52;;;;;;;1.65;1.55;;;;;;;23.01;100.00;100957.16;10456435;28;20124;-67
2023/08/31 07:48:52;;;;;;;1.73;1.63;;;;;;;22.88;100.00;100951.06;10455957;28;20037;-67
2023/08/31 07:53:53;;;;;;;3.55;1.30;;;;;;;23.44;100.00;100950.09;10456790;28;20053;-67
2023/08/31 07:58:53;;;;;;;1.30;1.20;;;;;;;23.85;100.00;100959.06;10454878;28;20039;-67
2023/08/31 08:03:53;;;;;;;1.95;1.80;;;;;;;23.95;100.00;100963.69;10454035;28;20047;-68
2023/08/31 08:08:54;;;;;;;12.55;1.10;;;;;;;23.64;100.00;100968.53;10455405;28;20039;-68
2023/08/31 08:13:55;;;;;;;1.75;1.33;;;;;;;23.63;100.00;100969.63;10437560;28;20024;-67
2023/08/31 08:18:55;;;;;;;1.42;1.20;;;;;;;23.73;100.00;100971.56;10454084;28;20112;-67
2023/08/31 08:23:56;;;;;;;7.40;1.55;;;;;;;23.86;100.00;100980.06;10438116;28;20037;-67
2023/08/31 08:28:56;;;;;;;1.35;1.30;;;;;;;24.06;100.00;100990.19;10454043;28;20075;-67
2023/08/31 08:33:57;;;;;;;1.73;1.63;;;;;;;24.53;100.00;100983.25;10437335;28;20037;-67
2023/08/31 08:38:57;;;;;;;6.50;1.15;;;;;;;24.65;100.00;101001.44;10454374;28;20033;-67
2023/08/31 08:44:01;;;;;;;2.15;1.33;;;;;;;24.65;100.00;101004.22;10454612;28;20127;-67
2023/08/31 08:49:02;;;;;;;6.22;1.73;;;;;;;24.78;100.00;101001.59;10436711;28;20033;-67
2023/08/31 08:54:03;;;;;;;4.50;1.63;;;;;;;25.19;100.00;101011.50;10452834;28;20032;-68
2023/08/31 08:59:03;;;;;;;1.25;1.17;;;;;;;25.02;82.15;101014.69;10451637;28;20492;-68
2023/08/31 09:04:04;;;;;;;9.50;1.83;;;;;;;25.11;96.14;101020.41;10453354;28;20125;-68
2023/08/31 09:09:04;;;;;;;2.83;1.33;;;;;;;24.99;96.14;101024.41;10452121;28;20072;-66
2023/08/31 09:14:18;;;;;;;1.50;1.17;;;;;;;25.17;83.78;101020.09;10452883;28;20061;-67
2023/08/31 09:19:24;;;;;;;1.77;1.67;;;;;;;25.37;95.31;101021.03;10453057;28;20500;-68
2023/08/31 09:24:25;;;;;;;8.43;2.17;;;;;;;25.69;88.45;101018.41;10460978;28;20033;-69
2023/08/31 09:29:25;;;;;;;2.55;1.25;;;;;;;25.20;86.30;101025.03;10459748;28;20140;-67
2023/08/31 09:34:32;;;;;;;2.28;1.60;;;;;;;25.34;80.15;101024.38;10442567;28;20036;-67
2023/08/31 09:39:37;;;;;;;1.48;1.38;;;;;;;25.06;77.76;101029.59;10460902;28;20175;-67
2023/08/31 09:44:45;;;;;;;5.72;1.95;;;;;;;24.70;81.56;101020.78;10442984;28;20591;-67
2023/08/31 09:49:45;;;;;;;6.25;2.10;;;;;;;24.16;98.83;101033.59;10444400;28;20033;-66
2023/08/31 09:54:46;;;;;;;6.35;1.98;;;;;;;24.67;89.05;101022.19;10442205;28;20075;-67
2023/08/31 09:59:46;;;;;;;5.95;1.27;;;;;;;25.54;83.57;101021.38;10442382;28;20332;-67
2023/08/31 10:04:48;;;;;;;2.20;1.83;;;;;;;24.84;94.67;101032.84;10458443;28;20131;-68
2023/08/31 10:09:48;;;;;;;1.77;0.95;;;;;;;23.99;91.79;101033.94;10443228;28;20124;-66
2023/08/31 10:14:51;;;;;;;6.03;1.90;;;;;;;23.51;86.93;101039.06;10441330;28;20029;-67
2023/08/31 10:19:51;;;;;;;7.85;1.58;;;;;;;23.03;99.46;101038.59;10441434;28;20040;-67
2023/08/31 10:25:05;;;;;;;1.50;1.40;;;;;;;24.70;86.58;101041.00;10440466;28;20071;-66
2023/08/31 10:30:14;;;;;;;1.15;1.15;;;;;;;25.03;77.63;101041.28;10457627;28;20073;-66
2023/08/31 10:35:15;;;;;;;2.88;1.70;;;;;;;24.39;81.34;101053.38;10456307;28;20453;-66
2023/08/31 10:40:15;;;;;;;2.88;1.45;;;;;;;24.84;82.93;101055.00;10459849;28;20041;-67
2023/08/31 10:45:20;;;;;;;1.30;1.20;;;;;;;25.62;73.68;101048.47;10458511;28;20033;-67
2023/08/31 10:50:22;;;;;;;1.88;1.67;;;;;;;26.63;78.18;101037.13;10458005;28;20033;-67
2023/08/31 10:55:26;;;;;;;1.02;1.02;;;;;;;25.56;73.75;101057.09;10457076;28;20590;-67
2023/08/31 11:00:56;;;;;;;1.65;1.52;;;;;;;25.56;77.02;101038.53;10455748;28;20036;-67
2023/08/31 11:05:57;;;;;;;1.05;1.05;;;;;;;25.85;73.42;101046.00;10457691;28;20427;-67
2023/08/31 11:10:57;;;;;;;2.05;1.27;;;;;;;25.61;83.24;101041.25;10455729;28;20037;-68
2023/08/31 11:15:57;;;;;;;3.08;1.23;;;;;;;24.39;76.16;101045.06;10457960;28;20112;-66
2023/08/31 11:20:59;;;;;;;3.47;2.03;;;;;;;24.95;83.73;101044.66;10440153;28;20067;-66
2023/08/31 11:25:59;;;;;;;1.25;1.25;;;;;;;26.14;80.38;101041.16;10459606;28;20029;-66
2023/08/31 11:31:00;;;;;;;1.23;1.23;;;;;;;26.55;70.27;101039.78;10441367;28;20049;-68
2023/08/31 11:36:00;;;;;;;3.72;1.60;;;;;;;26.85;71.39;101041.22;10459590;28;20037;-67
2023/08/31 11:41:01;;;;;;;1.73;1.50;;;;;;;25.41;86.11;101052.56;10458532;28;20067;-68
2023/08/31 11:46:03;;;;;;;2.05;1.35;;;;;;;26.25;78.93;101043.78;10441294;28;20067;-67
2023/08/31 11:51:03;;;;;;;3.55;1.77;;;;;;;26.96;71.49;101036.31;10457590;28;20400;-68
2023/08/31 11:56:04;;;;;;;2.00;1.67;;;;;;;27.66;68.89;101038.06;10457927;28;20043;-68
2023/08/31 12:01:04;;;;;;;2.35;1.58;;;;;;;26.49;81.48;101036.25;10440223;28;20025;-68
2023/08/31 12:06:06;;;;;;;3.60;1.45;;;;;;;26.44;74.94;101030.72;10457140;28;20045;-68
2023/08/31 12:11:07;;;;;;;9.63;2.03;;;;;;;26.21;82.33;101041.63;10456211;28;20384;-66
2023/08/31 12:16:13;;;;;;;1.58;1.48;;;;;;;25.23;87.49;101040.28;10455153;28;20033;-67
2023/08/31 12:21:14;;;;;;;1.80;1.27;;;;;;;25.21;83.51;101040.56;10457094;28;20037;-68
2023/08/31 12:26:14;;;;;;;1.73;1.60;;;;;;;25.83;82.89;101040.75;10458307;28;20040;-68
2023/08/31 12:31:14;;;;;;;1.60;1.50;;;;;;;26.38;75.42;101031.94;10456400;28;20064;-66
2023/08/31 12:36:15;;;;;;;1.45;1.35;;;;;;;26.38;79.02;101037.47;10436509;28;20029;-67
2023/08/31 12:41:17;;;;;;;0.95;0.95;;;;;;;25.97;76.10;101043.59;10453358;28;20506;-67
2023/08/31 12:46:17;;;;;;;2.33;1.75;;;;;;;26.13;80.64;101044.22;10454843;28;20025;-66
2023/08/31 12:51:18;;;;;;;3.88;2.25;;;;;;;26.36;65.50;101039.75;10454473;28;20102;-67
2023/08/31 12:56:21;;;;;;;4.13;2.13;;;;;;;26.75;76.71;101049.72;10457228;28;20037;-67
2023/08/31 13:01:23;;;;;;;7.00;2.13;;;;;;;26.96;77.78;101045.47;10463347;28;20052;-68
2023/08/31 13:06:25;;;;;;;2.72;1.90;;;;;;;26.91;76.88;101042.78;10462080;28;20399;-68
2023/08/31 13:11:25;;;;;;;4.55;1.60;;;;;;;27.28;82.84;101036.31;10462095;28;20032;-68
2023/08/31 13:16:26;;;;;;;3.42;1.85;;;;;;;26.92;81.49;101044.44;10460204;28;20397;-68
2023/08/31 13:21:27;;;;;;;3.97;1.42;;;;;;;26.23;82.40;101043.25;10460485;28;20032;-66
2023/08/31 13:26:27;;;;;;;2.15;1.17;;;;;;;26.66;86.00;101044.03;10460400;28;20564;-66
2023/08/31 13:31:28;;;;;;;2.35;2.15;;;;;;;26.63;84.68;101037.13;10458925;28;20068;-67
2023/08/31 13:36:29;;;;;;;1.92;1.70;;;;;;;26.68;79.98;101039.00;10461118;28;20025;-66
2023/08/31 13:41:30;;;;;;;1.45;1.45;;;;;;;26.46;78.37;101034.03;10459354;28;20033;-67
2023/08/31 13:46:31;;;;;;;2.08;1.88;;;;;;;26.16;68.56;101040.84;10459700;28;20037;-67
2023/08/31 13:51:31;;;;;;;7.45;2.10;;;;;;;26.19;76.06;101032.75;10459501;28;20431;-67
2023/08/31 13:56:32;;;;;;;2.22;1.27;;;;;;;26.22;79.68;101039.66;10441992;28;20041;-67
2023/08/31 14:01:32;;;;;;;2.70;2.15;;;;;;;25.90;76.85;101038.41;10442133;28;20535;-68
2023/08/31 14:06:33;;;;;;;12.63;2.20;;;;;;;25.61;79.07;101046.78;10459902;28;20118;-67
2023/08/31 14:11:33;;;;;;;1.45;1.35;;;;;;;25.55;79.18;101044.38;10458974;28;20049;-67
2023/08/31 14:16:33;;;;;;;8.88;1.80;;;;;;;25.37;79.30;101045.97;10458376;28;20032;-67
2023/08/31 14:21:34;;;;;;;2.60;1.83;;;;;;;25.11;86.10;101043.44;10457653;28;20473;-66
2023/08/31 14:26:34;;;;;;;1.48;1.45;;;;;;;24.94;80.44;101048.56;10458650;28;20032;-66
2023/08/31 14:31:35;;;;;;;2.58;2.00;;;;;;;24.88;83.34;101038.63;10458350;28;20061;-67
2023/08/31 14:36:35;;;;;;;3.45;1.10;;;;;;;24.64;84.35;101036.63;10458424;28;20067;-66
2023/08/31 14:41:35;;;;;;;1.65;1.40;;;;;;;24.58;84.45;101048.84;10457464;28;20036;-66
2023/08/31 14:46:36;;;;;;;1.77;1.67;;;;;;;24.36;87.78;101050.06;10439941;28;20130;-67
2023/08/31 14:51:36;;;;;;;1.70;1.58;;;;;;;23.70;92.09;101052.31;10456335;28;20033;-66
2023/08/31 14:56:37;;;;;;;1.50;1.35;;;;;;;22.73;91.42;101053.22;10456619;28;20460;-67
2023/08/31 15:01:37;;;;;;;1.65;1.55;;;;;;;22.11;94.21;101056.91;10458053;28;20481;-66
2023/08/31 15:06:38;;;;;;;2.25;1.98;;;;;;;21.67;94.85;101060.06;10457670;28;20090;-67
2023/08/31 15:11:39;;;;;;;2.45;2.22;;;;;;;21.17;92.47;101061.34;10455945;28;20431;-66
2023/08/31 15:16:40;;;;;;;3.00;1.73;;;;;;;21.10;93.71;101062.41;10455313;28;20036;-66
2023/08/31 15:21:41;;;;;;;2.78;2.25;;;;;;;21.07;93.12;101057.44;10456538;28;20065;-66
2023/08/31 15:26:41;;;;;;;2.80;1.42;;;;;;;21.03;94.70;101066.50;10455820;28;20059;-67
2023/08/31 15:31:41;;;;;;;5.40;2.72;;;;;;;20.92;94.92;101056.47;10455683;28;20500;-66
2023/08/31 15:36:42;;;;;;;1.58;1.48;;;;;;;20.80;97.26;101056.66;10438347;28;20036;-66
2023/08/31 15:41:42;;;;;;;1.63;1.40;;;;;;;20.72;94.88;101066.22;10438138;28;20478;-66
2023/08/31 15:46:43;;;;;;;3.28;1.67;;;;;;;20.63;95.21;101079.63;10454251;28;20055;-67
2023/08/31 15:51:44;;;;;;;1.08;1.02;;;;;;;20.81;98.59;101067.41;10456590;28;20083;-66
2023/08/31 15:56:44;;;;;;;1.85;1.52;;;;;;;20.87;99.18;101071.03;10455971;28;20071;-66
2023/08/31 16:01:44;;;;;;;4.85;2.20;;;;;;;20.67;97.76;101063.41;10453757;28;20037;-67
2023/08/31 16:06:45;;;;;;;1.95;1.85;;;;;;;20.75;99.62;101067.63;10456324;28;20048;-66
2023/08/31 16:11:46;;;;;;;4.80;1.95;;;;;;;20.65;98.60;101069.19;10452922;28;20061;-66
2023/08/31 16:16:46;;;;;;;4.30;2.47;;;;;;;20.34;98.71;101075.44;10453779;28;20036;-66
2023/08/31 16:21:46;;;;;;;2.03;1.83;;;;;;;20.22;99.87;101067.31;10454451;28;20060;-67
2023/08/31 16:26:47;;;;;;;1.48;1.38;;;;;;;20.25;99.73;101066.81;10452981;28;20210;-66
2023/08/31 16:31:47;;;;;;;2.35;2.17;;;;;;;20.27;100.00;101066.56;10452657;28;20086;-67
2023/08/31 16:36:49;;;;;;;9.13;2.20;;;;;;;20.10;99.88;101069.38;10452548;28;20049;-67
2023/08/31 16:41:49;;;;;;;6.10;2.05;;;;;;;19.81;100.00;101071.50;10455386;28;20544;-66
2023/08/31 16:46:50;;;;;;;3.03;1.80;;;;;;;19.74;100.00;101069.75;10453749;28;20112;-67
2023/08/31 16:51:50;;;;;;;6.60;2.20;;;;;;;19.76;99.47;101069.53;10453843;28;20086;-67
2023/08/31 16:56:51;;;;;;;1.90;1.80;;;;;;;19.84;100.00;101068.22;10454384;28;20086;-67
2023/08/31 17:01:51;;;;;;;2.67;1.80;;;;;;;19.83;100.00;101063.84;10453818;28;20063;-67
2023/08/31 17:06:52;;;;;;;1.63;1.52;;;;;;;19.62;98.16;101069.03;10452694;28;20044;-66
2023/08/31 17:11:52;;;;;;;1.52;1.20;;;;;;;19.33;97.63;101067.50;10454761;28;20052;-67
2023/08/31 17:16:53;;;;;;;2.83;1.95;;;;;;;19.10;98.86;101076.75;10454102;28;20033;-67
2023/08/31 17:21:53;;;;;;;4.72;1.85;;;;;;;18.92;98.96;101077.81;10455135;28;20484;-66
2023/08/31 17:26:54;;;;;;;2.72;1.35;;;;;;;18.73;99.56;101078.06;10453427;28;20029;-66
2023/08/31 17:31:54;;;;;;;3.78;2.25;;;;;;;18.56;100.00;101077.16;10453691;28;20106;-66
2023/08/31 17:36:55;;;;;;;2.25;1.80;;;;;;;18.48;100.00;101083.06;10451976;28;20112;-66
2023/08/31 17:41:55;;;;;;;2.88;2.42;;;;;;;18.54;100.00;101073.84;10456599;28;20084;-66
2023/08/31 17:46:56;;;;;;;3.10;2.35;;;;;;;18.56;100.00;101078.00;10460839;28;20461;-68
2023/08/31 17:51:57;;;;;;;4.80;2.60;;;;;;;18.62;100.00;101070.69;10442550;28;20033;-66
2023/08/31 17:56:57;;;;;;;3.13;1.90;;;;;;;18.61;100.00;101063.56;10460042;28;20037;-68
2023/08/31 18:01:59;;;;;;;5.57;2.65;;;;;;;18.52;100.00;101073.25;10458722;28;20441;-67
2023/08/31 18:07:00;;;;;;;2.75;2.50;;;;;;;18.29;100.00;101061.31;10459999;28;20029;-69
2023/08/31 18:12:01;;;;;;;2.28;1.95;;;;;;;18.01;99.89;101061.31;10461017;28;20036;-68
2023/08/31 18:17:02;;;;;;;14.43;3.30;;;;;;;17.75;100.00;101055.25;10460151;28;20041;-68
2023/08/31 18:22:03;;;;;;;14.45;3.17;;;;;;;17.55;100.00;101060.28;10459536;28;20037;-67
2023/08/31 18:27:05;;;;;;;3.83;2.15;;;;;;;17.33;100.00;101069.13;10462638;28;20043;-67
2023/08/31 18:32:05;;;;;;;2.67;2.47;;;;;;;17.09;98.91;101067.44;10442664;28;20053;-66
2023/08/31 18:37:06;;;;;;;2.20;2.00;;;;;;;16.90;100.00;101081.19;10458932;28;20467;-67
2023/08/31 18:42:07;;;;;;;3.72;1.88;;;;;;;16.76;100.00;101081.66;10457511;28;20053;-67
2023/08/31 18:47:07;;;;;;;5.93;2.78;;;;;;;16.59;100.00;101084.19;10458222;28;20071;-66
2023/08/31 18:52:08;;;;;;;4.10;2.22;;;;;;;16.43;100.00;101075.59;10457112;28;20040;-66
2023/08/31 18:57:10;;;;;;;4.07;2.17;;;;;;;16.37;100.00;101086.59;10457096;28;20036;-67
2023/08/31 19:02:10;;;;;;;5.80;2.17;;;;;;;16.44;100.00;101092.81;10456174;28;20044;-67
2023/08/31 19:07:11;;;;;;;13.23;2.83;;;;;;;16.50;100.00;101108.31;10455535;28;20506;-67
2023/08/31 19:12:11;;;;;;;1.88;1.77;;;;;;;16.53;100.00;101102.38;10457345;28;20120;-65
2023/08/31 19:17:11;;;;;;;2.97;2.05;;;;;;;16.34;100.00;101109.78;10457212;28;20120;-65
2023/08/31 19:22:13;;;;;;;2.67;2.45;;;;;;;15.98;100.00;101102.44;10458091;28;20120;-66
2023/08/31 19:27:14;;;;;;;2.08;1.92;;;;;;;15.80;100.00;101103.28;10456008;28;20029;-68
2023/08/31 19:32:14;;;;;;;2.30;2.10;;;;;;;15.75;100.00;101103.13;10455189;28;20063;-66
2023/08/31 19:37:16;;;;;;;10.52;2.40;;;;;;;15.80;100.00;101109.59;10456415;28;20087;-67
2023/08/31 19:42:16;;;;;;;2.80;2.25;;;;;;;15.99;100.00;101104.13;10455966;28;20069;-67
2023/08/31 19:47:17;;;;;;;1.60;1.50;;;;;;;16.18;100.00;101110.41;10454609;28;20066;-68
2023/08/31 19:52:17;;;;;;;2.13;1.60;;;;;;;16.13;100.00;101111.09;10456116;28;20116;-70
2023/08/31 19:57:17;;;;;;;2.67;2.35;;;;;;;15.99;100.00;101102.22;10455517;28;20060;-70
2023/08/31 20:02:18;;;;;;;5.20;2.40;;;;;;;15.85;100.00;101100.69;10456075;28;20094;-69
2023/08/31 20:07:19;;;;;;;6.40;2.50;;;;;;;15.73;100.00;101103.38;10454611;28;20029;-69
2023/08/31 20:12:20;;;;;;;2.97;1.95;;;;;;;15.62;100.00;101108.69;10455244;28;20033;-69
2023/08/31 20:17:20;;;;;;;5.47;1.80;;;;;;;15.55;100.00;101104.13;10455220;28;20461;-70
2023/08/31 20:22:21;;;;;;;3.33;2.33;;;;;;;15.62;100.00;101112.25;10453622;28;20033;-70
2023/08/31 20:27:21;;;;;;;1.77;1.63;;;;;;;15.72;100.00;101117.22;10452547;28;20041;-70
2023/08/31 20:32:22;;;;;;;6.03;3.60;;;;;;;15.78;100.00;101124.50;10455204;28;20511;-70
2023/08/31 20:37:23;;;;;;;3.75;2.30;;;;;;;15.85;100.00;101125.28;10454304;28;20175;-70
2023/08/31 20:42:23;;;;;;;3.05;2.47;;;;;;;15.91;100.00;101124.38;10454399;28;20101;-70
2023/08/31 20:47:25;;;;;;;5.85;2.03;;;;;;;16.10;100.00;101132.56;10452416;28;20033;-70
2023/08/31 20:52:25;;;;;;;8.50;3.58;;;;;;;16.21;100.00;101140.84;10453555;28;20400;-69
2023/08/31 20:57:26;;;;;;;7.85;3.55;;;;;;;16.35;100.00;101144.22;10454105;28;20029;-70
2023/08/31 21:02:26;;;;;;;13.68;5.18;;;;;;;16.50;100.00;101152.88;10452753;28;20384;-70
2023/08/31 21:07:27;;;;;;;14.05;5.55;;;;;;;16.57;100.00;101155.50;10453558;28;20036;-70
2023/08/31 21:12:27;;;;;;;5.68;4.47;;;;;;;16.36;100.00;101153.25;10453940;28;20509;-70
2023/08/31 21:17:28;;;;;;;11.02;6.32;;;;;;;16.25;100.00;101138.47;10458108;28;20033;-70
2023/08/31 21:22:28;;;;;;;11.65;5.53;;;;;;;16.27;100.00;101139.94;10461461;28;20066;-70
2023/08/31 21:27:28;;;;;;;9.43;5.95;;;;;;;16.26;100.00;101142.88;10461786;28;20083;-70
2023/08/31 21:32:29;;;;;;;10.63;6.65;;;;;;;16.20;100.00;101141.88;10461367;28;20053;-70
2023/08/31 21:37:29;;;;;;;14.68;5.13;;;;;;;16.14;100.00;101128.31;10461760;28;20432;-70
2023/08/31 21:42:30;;;;;;;13.00;6.70;;;;;;;16.08;100.00;101112.81;10462008;28;20033;-70
2023/08/31 21:47:31;;;;;;;10.18;6.03;;;;;;;16.06;100.00;101121.25;10461331;28;20436;-70
2023/08/31 21:52:31;;;;;;;7.88;6.07;;;;;;;16.07;100.00;101124.81;10461083;28;20492;-70
2023/08/31 21:57:32;;;;;;;14.57;6.63;;;;;;;16.06;100.00;101131.34;10458996;28;20068;-69
2023/08/31 22:02:32;;;;;;;4.93;4.40;;;;;;;16.07;100.00;101139.31;10458964;28;20045;-69
2023/08/31 22:07:33;;;;;;;8.95;5.80;;;;;;;16.07;100.00;101133.84;10442721;28;20067;-69
2023/08/31 22:12:34;;;;;;;11.43;6.90;;;;;;;16.09;100.00;101136.38;10460911;28;20122;-69
2023/08/31 22:17:34;;;;;;;14.38;6.60;;;;;;;16.15;100.00;101139.03;10442872;28;20033;-70
2023/08/31 22:22:35;;;;;;;6.75;5.70;;;;;;;16.18;100.00;101141.28;10459011;28;20064;-69
2023/08/31 22:27:35;;;;;;;7.63;6.88;;;;;;;16.22;100.00;101149.88;10442115;28;20040;-69
2023/08/31 22:32:36;;;;;;;10.85;6.38;;;;;;;16.20;100.00;101136.41;10459050;28;20060;-69
2023/08/31 22:37:37;;;;;;;9.57;8.52;;;;;;;16.18;100.00;101133.09;10457325;28;20579;-69
2023/08/31 22:42:38;;;;;;;15.82;7.82;;;;;;;16.16;100.00;101128.91;10458943;28;20128;-70
2023/08/31 22:47:38;;;;;;;12.30;8.65;;;;;;;16.19;100.00;101139.41;10441126;28;20039;-69
2023/08/31 22:52:39;;;;;;;6.80;6.15;;;;;;;16.21;100.00;101134.53;10442313;28;20040;-69